Time;durP1;ratioP1;P1;durP2;ratioP2;P2;SDS_P1;SDS_P2;PMS_P1;PMS_P2;Temp;Humidity;BMP_temperature;BMP_pressure;BME280_temperature;BME280_humidity;BME280_pressure;Samples;Min_cycle;Max_cycle;Signal;HPM_P1;HPM_P2
2022/06/15 00:00:34;;;;;;;5.32;2.60;;;23.00;93.20;;;;;;5029335;28;20387;-74
2022/06/15 00:03:00;;;;;;;4.50;2.13;;;23.00;93.20;;;;;;5031283;28;20124;-74
2022/06/15 00:05:27;;;;;;;6.85;2.40;;;23.00;93.50;;;;;;5029694;28;20150;-73
2022/06/15 00:07:52;;;;;;;4.80;2.20;;;22.90;93.10;;;;;;5029994;28;20033;-74
2022/06/15 00:10:19;;;;;;;6.65;2.33;;;22.90;93.20;;;;;;5024059;28;20026;-73
2022/06/15 00:12:45;;;;;;;8.13;2.60;;;23.00;93.40;;;;;;5020888;28;20447;-73
2022/06/15 00:15:11;;;;;;;3.55;1.80;;;22.90;93.80;;;;;;5031935;28;20037;-73
2022/06/15 00:17:36;;;;;;;5.78;3.30;;;23.00;93.60;;;;;;5032872;28;20029;-73
2022/06/15 00:20:03;;;;;;;5.45;2.30;;;23.00;93.60;;;;;;5027744;28;20630;-73
2022/06/15 00:22:29;;;;;;;6.53;2.70;;;22.90;94.10;;;;;;5032099;28;20365;-73
2022/06/15 00:24:54;;;;;;;5.13;2.38;;;22.90;93.40;;;;;;5019758;28;20041;-73
2022/06/15 00:27:20;;;;;;;4.63;2.40;;;23.00;93.60;;;;;;5028562;28;20041;-74
2022/06/15 00:29:46;;;;;;;7.82;2.78;;;23.10;93.70;;;;;;5024251;28;20471;-73
2022/06/15 00:32:11;;;;;;;7.07;3.05;;;23.10;93.50;;;;;;5028764;28;20132;-73
2022/06/15 00:34:37;;;;;;;7.65;3.00;;;22.90;93.80;;;;;;5020556;28;20030;-74
2022/06/15 00:37:05;;;;;;;9.48;2.55;;;22.90;93.80;;;;;;5029702;28;20048;-74
2022/06/15 00:39:32;;;;;;;3.72;2.17;;;22.80;93.80;;;;;;5022000;28;20068;-74
2022/06/15 00:41:59;;;;;;;6.13;2.80;;;22.80;93.90;;;;;;5033516;28;20028;-74
2022/06/15 00:44:24;;;;;;;5.85;2.63;;;22.60;94.30;;;;;;5026673;28;20033;-73
2022/06/15 00:47:21;;;;;;;5.07;2.55;;;22.60;94.20;;;;;;5029485;28;20029;-74
2022/06/15 00:49:55;;;;;;;5.07;2.13;;;22.60;94.10;;;;;;5028286;28;20021;-73
2022/06/15 00:52:48;;;;;;;5.07;2.28;;;22.70;94.30;;;;;;5021928;28;20040;-74
2022/06/15 00:55:21;;;;;;;4.75;2.20;;;22.70;94.10;;;;;;5027354;28;20025;-74
2022/06/15 00:57:47;;;;;;;4.63;1.95;;;22.70;94.80;;;;;;5026418;28;20113;-73
2022/06/15 01:00:14;;;;;;;3.78;2.40;;;22.60;94.80;;;;;;5031697;28;20108;-73
2022/06/15 01:02:41;;;;;;;3.40;2.28;;;22.60;94.00;;;;;;5020171;28;20033;-73
2022/06/15 01:05:12;;;;;;;5.55;2.45;;;22.50;94.20;;;;;;5032671;28;20475;-73
2022/06/15 01:07:59;;;;;;;6.57;2.58;;;22.50;94.30;;;;;;5025113;28;20056;-75
2022/06/15 01:10:30;;;;;;;8.07;3.20;;;22.50;94.40;;;;;;5027861;28;20029;-74
2022/06/15 01:13:17;;;;;;;5.85;2.30;;;22.50;94.50;;;;;;5018927;28;20528;-73
2022/06/15 01:16:03;;;;;;;5.05;2.42;;;22.50;94.80;;;;;;5024217;28;20396;-74
2022/06/15 01:18:32;;;;;;;5.28;2.35;;;22.40;94.50;;;;;;5018487;28;20037;-73
2022/06/15 01:21:21;;;;;;;3.97;2.25;;;22.40;94.60;;;;;;5023416;28;20041;-73
2022/06/15 01:23:59;;;;;;;5.15;2.28;;;22.30;94.70;;;;;;5029107;28;20463;-73
2022/06/15 01:26:39;;;;;;;4.97;2.38;;;22.20;95.10;;;;;;5027965;28;20033;-73
2022/06/15 01:29:42;;;;;;;5.93;2.15;;;22.20;94.90;;;;;;5035629;28;20035;-73
2022/06/15 01:32:34;;;;;;;4.18;2.33;;;22.20;94.90;;;;;;5021210;28;20049;-73
2022/06/15 01:35:22;;;;;;;5.85;2.40;;;22.30;94.60;;;;;;5024426;28;20049;-73
2022/06/15 01:38:28;;;;;;;4.13;2.40;;;22.50;94.30;;;;;;5019102;28;20377;-73
2022/06/15 01:41:00;;;;;;;4.00;2.45;;;22.50;94.40;;;;;;5023038;28;20045;-73
2022/06/15 01:43:30;;;;;;;5.60;2.20;;;22.50;94.60;;;;;;5017866;28;20034;-73
2022/06/15 01:45:58;;;;;;;4.47;2.65;;;22.30;94.90;;;;;;5029462;28;20120;-74
2022/06/15 01:48:27;;;;;;;5.07;2.50;;;22.30;95.00;;;;;;5017215;28;20057;-73
2022/06/15 01:50:57;;;;;;;6.13;2.55;;;22.40;95.30;;;;;;5026414;28;20540;-73
2022/06/15 01:53:30;;;;;;;6.82;2.50;;;22.40;95.30;;;;;;5021116;28;20112;-73
2022/06/15 01:56:22;;;;;;;4.53;2.35;;;22.30;95.60;;;;;;5024567;28;20395;-73
2022/06/15 01:58:53;;;;;;;6.60;2.63;;;22.20;95.80;;;;;;5024622;28;20543;-74
2022/06/15 02:01:28;;;;;;;6.82;2.75;;;22.20;95.90;;;;;;5020582;28;20052;-74
2022/06/15 02:04:10;;;;;;;9.23;3.03;;;22.20;96.10;;;;;;5025643;28;20041;-74
2022/06/15 02:07:05;;;;;;;6.35;2.72;;;22.10;96.10;;;;;;5016633;28;21344;-73
2022/06/15 02:09:53;;;;;;;6.15;2.58;;;21.90;96.40;;;;;;5027838;28;20037;-73
2022/06/15 02:12:26;;;;;;;5.75;2.90;;;22.00;96.20;;;;;;5022047;28;20033;-73
2022/06/15 02:14:56;;;;;;;6.35;3.10;;;22.10;95.90;;;;;;5024073;28;20072;-73
2022/06/15 02:17:33;;;;;;;7.35;2.67;;;22.10;96.10;;;;;;5025722;28;20048;-73
2022/06/15 02:20:14;;;;;;;5.75;2.85;;;22.00;96.10;;;;;;5027272;28;20115;-74
2022/06/15 02:22:41;;;;;;;5.85;2.22;;;22.00;96.00;;;;;;5023768;28;20468;-73
2022/06/15 02:25:13;;;;;;;4.18;2.53;;;22.10;95.90;;;;;;5028144;28;20034;-73
2022/06/15 02:27:40;;;;;;;3.75;2.33;;;22.10;95.70;;;;;;5019186;28;20029;-73
2022/06/15 02:30:14;;;;;;;4.13;2.33;;;22.10;95.50;;;;;;5018495;28;20475;-73
2022/06/15 02:32:43;;;;;;;8.52;3.00;;;22.20;95.60;;;;;;5024670;28;20065;-73
2022/06/15 02:35:09;;;;;;;6.82;2.88;;;22.10;95.50;;;;;;5022636;28;20057;-73
2022/06/15 02:37:35;;;;;;;6.53;2.88;;;22.00;95.40;;;;;;5021870;28;20076;-73
2022/06/15 02:40:01;;;;;;;4.18;2.88;;;22.00;95.60;;;;;;5029790;28;20029;-72
2022/06/15 02:42:33;;;;;;;7.22;2.70;;;22.10;95.60;;;;;;5026320;28;20025;-72
2022/06/15 02:45:10;;;;;;;6.13;3.08;;;22.00;95.60;;;;;;5020124;28;20117;-72
2022/06/15 02:47:40;;;;;;;6.22;2.30;;;21.90;95.70;;;;;;5027933;28;20037;-73
2022/06/15 02:50:08;;;;;;;7.50;3.13;;;21.90;95.70;;;;;;5026742;28;20402;-73
2022/06/15 02:52:53;;;;;;;5.80;2.67;;;21.80;95.90;;;;;;5024981;28;20041;-73
2022/06/15 02:55:20;;;;;;;7.32;2.50;;;21.80;95.90;;;;;;5030953;28;20383;-73
2022/06/15 02:57:51;;;;;;;3.85;2.55;;;21.80;96.00;;;;;;5020616;28;20124;-72
2022/06/15 03:00:20;;;;;;;5.97;3.13;;;21.70;96.00;;;;;;5025371;28;20029;-75
2022/06/15 03:02:46;;;;;;;5.95;3.17;;;21.70;96.00;;;;;;5016494;28;20076;-74
2022/06/15 03:05:12;;;;;;;7.22;2.47;;;21.80;96.00;;;;;;5021009;28;20029;-74
2022/06/15 03:07:37;;;;;;;6.72;2.63;;;21.80;96.00;;;;;;5021533;28;20364;-75
2022/06/15 03:10:04;;;;;;;5.25;3.13;;;21.80;96.30;;;;;;5027641;28;20108;-75
2022/06/15 03:12:29;;;;;;;5.65;3.05;;;21.80;96.10;;;;;;5027262;28;20045;-74
2022/06/15 03:14:55;;;;;;;5.30;2.88;;;21.80;96.00;;;;;;5018394;28;20033;-74
2022/06/15 03:17:21;;;;;;;6.18;2.42;;;21.70;96.20;;;;;;5026941;28;20112;-74
2022/06/15 03:19:47;;;;;;;5.43;3.30;;;21.60;96.40;;;;;;5017344;28;20101;-74
2022/06/15 03:22:13;;;;;;;6.63;2.50;;;21.60;96.60;;;;;;5015198;28;20036;-74
2022/06/15 03:24:39;;;;;;;6.30;2.90;;;21.60;96.50;;;;;;5023278;28;20029;-74
2022/06/15 03:27:05;;;;;;;5.03;2.50;;;21.80;96.50;;;;;;5023193;28;20484;-74
2022/06/15 03:29:31;;;;;;;4.72;2.67;;;21.70;96.50;;;;;;5030411;28;20034;-74
2022/06/15 03:31:56;;;;;;;5.38;2.83;;;21.60;96.70;;;;;;5017240;28;20116;-74
2022/06/15 03:34:22;;;;;;;5.70;3.30;;;21.50;96.80;;;;;;5027668;28;20026;-74
2022/06/15 03:36:48;;;;;;;6.45;3.22;;;21.50;96.90;;;;;;5022947;28;20484;-74
2022/06/15 03:39:13;;;;;;;5.68;3.03;;;21.50;96.90;;;;;;5025767;28;20105;-75
2022/06/15 03:41:39;;;;;;;6.95;2.95;;;21.50;97.10;;;;;;5018037;28;20022;-74
2022/06/15 03:44:05;;;;;;;4.90;2.70;;;21.50;97.00;;;;;;5025447;28;20034;-74
2022/06/15 03:46:30;;;;;;;8.18;3.40;;;21.40;96.90;;;;;;5026169;28;20025;-74
2022/06/15 03:48:56;;;;;;;6.63;3.30;;;21.40;97.00;;;;;;5027536;28;20056;-74
2022/06/15 03:51:22;;;;;;;6.97;2.83;;;21.40;97.10;;;;;;5022400;28;20029;-74
2022/06/15 03:53:47;;;;;;;5.20;2.60;;;21.50;97.20;;;;;;5027623;28;20111;-75
2022/06/15 03:56:13;;;;;;;9.25;3.70;;;21.50;97.10;;;;;;5023437;28;20097;-74
2022/06/15 03:58:39;;;;;;;4.85;2.63;;;21.40;97.00;;;;;;5023372;28;20125;-75
2022/06/15 04:01:05;;;;;;;7.32;2.85;;;21.60;96.90;;;;;;5025794;28;20061;-74
2022/06/15 04:03:30;;;;;;;5.80;3.03;;;21.50;97.00;;;;;;5021047;28;20049;-75
2022/06/15 04:05:58;;;;;;;5.97;2.65;;;21.50;97.00;;;;;;5025095;28;20026;-74
2022/06/15 04:08:42;;;;;;;6.97;3.10;;;21.60;97.40;;;;;;5026588;28;20041;-74
2022/06/15 04:14:01;;;;;;;6.90;2.95;;;21.60;97.60;;;;;;5021166;28;20921;-74
2022/06/15 04:16:28;;;;;;;6.80;3.53;;;21.60;97.60;;;;;;5024590;28;20040;-74
2022/06/15 04:18:54;;;;;;;6.45;3.22;;;21.60;97.70;;;;;;5022729;28;20535;-75
2022/06/15 04:21:19;;;;;;;6.05;3.17;;;21.40;97.50;;;;;;5017822;28;20121;-74
2022/06/15 04:23:45;;;;;;;5.88;2.63;;;21.40;97.70;;;;;;5023065;28;20108;-74
2022/06/15 04:26:11;;;;;;;6.40;3.13;;;21.40;97.70;;;;;;5020623;28;20113;-74
2022/06/15 04:28:39;;;;;;;5.00;3.60;;;21.50;97.60;;;;;;5023912;28;20037;-74
2022/06/15 04:31:05;;;;;;;6.85;3.22;;;21.60;97.80;;;;;;5025329;28;20039;-74
2022/06/15 04:33:31;;;;;;;5.53;2.97;;;21.60;97.70;;;;;;5027608;28;20033;-74
2022/06/15 04:35:57;;;;;;;5.13;3.08;;;21.60;97.70;;;;;;5017351;28;20084;-74
2022/06/15 04:38:23;;;;;;;5.82;3.05;;;21.60;97.50;;;;;;5018810;28;20033;-74
2022/06/15 04:40:49;;;;;;;4.55;3.22;;;21.60;97.60;;;;;;5019812;28;20661;-74
2022/06/15 04:43:15;;;;;;;5.28;2.90;;;21.60;97.70;;;;;;5025218;28;20116;-74
2022/06/15 04:45:41;;;;;;;6.68;2.75;;;21.70;97.70;;;;;;5017331;28;20124;-74
2022/06/15 04:48:09;;;;;;;4.65;2.63;;;21.80;97.70;;;;;;5024295;28;20531;-74
2022/06/15 04:50:35;;;;;;;7.35;3.38;;;21.90;97.50;;;;;;5016842;28;20125;-74
2022/06/15 04:53:02;;;;;;;4.28;2.88;;;22.10;97.70;;;;;;5018881;28;20128;-74
2022/06/15 04:55:28;;;;;;;5.38;2.78;;;22.10;97.30;;;;;;5022938;28;20361;-74
2022/06/15 04:57:54;;;;;;;8.70;3.03;;;22.10;97.20;;;;;;5014031;28;20075;-74
2022/06/15 05:00:23;;;;;;;6.43;2.88;;;22.20;98.00;;;;;;5011611;28;20057;-74
2022/06/15 05:02:49;;;;;;;6.97;3.25;;;22.20;98.00;;;;;;5018189;28;20056;-74
2022/06/15 05:05:15;;;;;;;6.47;3.00;;;22.20;98.30;;;;;;5016283;28;20468;-75
2022/06/15 05:07:41;;;;;;;4.95;2.85;;;22.20;99.20;;;;;;5022134;28;20033;-74
2022/06/15 05:10:10;;;;;;;4.78;2.88;;;22.20;99.30;;;;;;5022825;28;20033;-74
2022/06/15 05:12:36;;;;;;;5.35;2.60;;;22.10;99.80;;;;;;5018970;28;20103;-74
2022/06/15 05:15:02;;;;;;;9.18;2.90;;;22.10;99.90;;;;;;5019932;28;20843;-74
2022/06/15 05:17:28;;;;;;;6.65;2.95;;;22.10;99.60;;;;;;5019634;28;20052;-74
2022/06/15 05:19:53;;;;;;;5.35;3.00;;;22.10;99.20;;;;;;5021580;28;20464;-74
2022/06/15 05:22:19;;;;;;;5.35;3.20;;;22.10;99.30;;;;;;5014148;28;20059;-74
2022/06/15 05:24:45;;;;;;;7.18;3.80;;;22.10;99.30;;;;;;5025783;28;20124;-74
2022/06/15 05:27:10;;;;;;;8.00;3.15;;;22.10;99.50;;;;;;5015707;28;21150;-74
2022/06/15 05:29:37;;;;;;;4.97;2.92;;;22.20;99.60;;;;;;5031212;28;20079;-75
2022/06/15 05:32:05;;;;;;;5.88;3.30;;;22.40;99.90;;;;;;5020109;28;20164;-74
2022/06/15 05:34:31;;;;;;;4.72;3.20;;;22.50;98.80;;;;;;5017699;28;20851;-75
2022/06/15 05:36:57;;;;;;;8.07;3.35;;;22.60;98.90;;;;;;5006355;28;20034;-73
2022/06/15 05:39:22;;;;;;;7.82;2.90;;;22.70;98.70;;;;;;5017163;28;20171;-75
2022/06/15 05:41:51;;;;;;;5.20;2.95;;;22.80;98.30;;;;;;5018898;28;20109;-73
2022/06/15 05:46:44;;;;;;;8.00;3.80;;;22.80;98.10;;;;;;5015917;28;20045;-73
2022/06/15 05:49:11;;;;;;;7.28;3.63;;;22.70;98.00;;;;;;5019930;28;20089;-73
2022/06/15 05:51:36;;;;;;;8.93;3.67;;;22.80;98.50;;;;;;5022176;28;20040;-73
2022/06/15 05:54:03;;;;;;;5.63;3.33;;;22.90;98.90;;;;;;5019624;28;20041;-72
2022/06/15 05:56:28;;;;;;;5.50;3.60;;;22.80;98.80;;;;;;5012523;28;20037;-74
2022/06/15 05:58:54;;;;;;;6.05;3.40;;;22.80;98.80;;;;;;5018643;28;20044;-73
2022/06/15 06:01:26;;;;;;;6.97;2.92;;;22.80;98.50;;;;;;5022689;28;20027;-73
2022/06/15 06:03:52;;;;;;;6.75;3.10;;;22.80;97.80;;;;;;5021201;28;20029;-73
2022/06/15 06:06:18;;;;;;;6.78;3.15;;;22.90;97.80;;;;;;5021975;28;20547;-73
2022/06/15 06:08:44;;;;;;;6.10;3.67;;;23.00;97.90;;;;;;5017412;28;20120;-73
2022/06/15 06:11:10;;;;;;;7.53;3.40;;;23.00;97.50;;;;;;5021933;28;20124;-73
2022/06/15 06:13:35;;;;;;;5.90;3.95;;;23.00;98.00;;;;;;5023534;28;20049;-73
2022/06/15 06:16:01;;;;;;;5.53;3.83;;;23.10;98.40;;;;;;5023151;28;20032;-72
2022/06/15 06:18:27;;;;;;;6.57;4.13;;;23.20;97.90;;;;;;5017090;28;20623;-72
2022/06/15 06:20:53;;;;;;;6.22;4.13;;;23.30;97.40;;;;;;5022624;28;20120;-73
2022/06/15 06:23:19;;;;;;;7.85;3.78;;;23.30;97.30;;;;;;5022472;28;20436;-72
2022/06/15 06:25:47;;;;;;;7.10;4.15;;;23.50;97.60;;;;;;5019440;28;20029;-73
2022/06/15 06:28:31;;;;;;;10.38;4.53;;;23.50;97.50;;;;;;5021265;28;20052;-72
2022/06/15 06:30:58;;;;;;;;;;;23.50;96.90;;;;;;5019212;28;20179;-73
2022/06/15 06:33:25;;;;;;;6.60;3.78;;;23.40;96.90;;;;;;5021203;28;19920;-73
2022/06/15 06:35:51;;;;;;;9.40;4.00;;;23.40;96.80;;;;;;5018226;28;20028;-73
2022/06/15 06:38:17;;;;;;;8.02;4.50;;;23.50;96.90;;;;;;5015767;28;20033;-73
2022/06/15 06:40:42;;;;;;;8.80;3.60;;;23.70;97.10;;;;;;5020633;28;20040;-73
2022/06/15 06:43:08;;;;;;;7.45;3.15;;;23.80;96.90;;;;;;5013594;28;20028;-73
2022/06/15 06:45:34;;;;;;;5.88;3.53;;;23.70;96.90;;;;;;5019946;28;20691;-72
2022/06/15 06:48:00;;;;;;;7.18;3.95;;;23.80;96.80;;;;;;5019694;28;20022;-73
2022/06/15 06:50:27;;;;;;;4.93;3.30;;;23.80;97.00;;;;;;5021028;28;20034;-73
2022/06/15 06:52:53;;;;;;;8.95;4.40;;;23.80;96.60;;;;;;5018448;28;20037;-72
2022/06/15 06:55:21;;;;;;;7.50;3.88;;;23.90;96.60;;;;;;5020487;28;20125;-72
2022/06/15 06:57:47;;;;;;;6.68;4.15;;;24.00;96.60;;;;;;5021164;28;20044;-73
2022/06/15 07:00:13;;;;;;;5.60;3.30;;;24.10;96.80;;;;;;5019912;28;20092;-73
2022/06/15 07:02:39;;;;;;;6.63;4.18;;;24.30;96.60;;;;;;5018760;28;20041;-73
2022/06/15 07:05:05;;;;;;;7.43;3.90;;;24.30;96.40;;;;;;5020047;28;20419;-72
2022/06/15 07:07:33;;;;;;;8.13;4.00;;;24.30;96.40;;;;;;5018733;28;20037;-73
2022/06/15 07:09:58;;;;;;;6.28;3.83;;;24.20;96.20;;;;;;5015193;28;20491;-72
2022/06/15 07:12:24;;;;;;;8.20;3.58;;;24.30;96.40;;;;;;5018113;28;20045;-72
2022/06/15 07:14:51;;;;;;;7.53;3.95;;;24.20;96.30;;;;;;5020130;28;20032;-72
2022/06/15 07:17:17;;;;;;;4.68;2.97;;;24.50;95.90;;;;;;5011934;28;20392;-73
2022/06/15 07:19:43;;;;;;;6.63;3.47;;;24.90;96.00;;;;;;5020837;28;20086;-72
2022/06/15 07:22:09;;;;;;;6.95;3.40;;;25.10;95.40;;;;;;5023705;28;20486;-72
2022/06/15 07:24:35;;;;;;;5.82;3.40;;;25.40;95.30;;;;;;5023859;28;20029;-72
2022/06/15 07:27:00;;;;;;;5.03;2.90;;;25.40;95.10;;;;;;5023180;28;20037;-73
2022/06/15 07:29:26;;;;;;;6.22;3.33;;;25.30;95.60;;;;;;5022757;28;20083;-72
2022/06/15 07:31:55;;;;;;;7.07;3.75;;;25.60;94.60;;;;;;5022589;28;20041;-73
2022/06/15 07:34:21;;;;;;;8.65;3.25;;;26.30;94.80;;;;;;5014969;28;20075;-72
2022/06/15 07:36:47;;;;;;;7.40;4.07;;;26.70;93.60;;;;;;5017887;28;20491;-73
2022/06/15 07:39:20;;;;;;;6.35;3.47;;;27.30;92.40;;;;;;5021768;28;20448;-73
2022/06/15 07:41:47;;;;;;;4.70;2.70;;;27.40;92.00;;;;;;5019510;28;20085;-73
2022/06/15 07:44:14;;;;;;;9.55;3.50;;;27.90;92.10;;;;;;5022879;28;20033;-72
2022/06/15 07:46:40;;;;;;;6.43;3.42;;;27.50;92.40;;;;;;5022126;28;20113;-72
2022/06/15 07:51:59;;;;;;;7.68;3.40;;;27.70;92.20;;;;;;5017712;28;21172;-73
2022/06/15 07:54:26;;;;;;;7.25;3.67;;;27.90;92.30;;;;;;5024765;28;20484;-73
2022/06/15 07:56:53;;;;;;;5.72;3.13;;;27.50;92.30;;;;;;5022525;28;20364;-73
2022/06/15 07:59:19;;;;;;;10.10;4.55;;;27.20;92.30;;;;;;5025532;28;20576;-73
2022/06/15 08:01:45;;;;;;;6.18;3.05;;;27.40;92.70;;;;;;5024424;28;20044;-73
2022/06/15 08:04:13;;;;;;;6.30;3.42;;;27.60;92.60;;;;;;5021261;28;20541;-73
2022/06/15 08:06:41;;;;;;;6.25;3.38;;;27.60;92.40;;;;;;5025254;28;20025;-72
2022/06/15 08:09:09;;;;;;;5.40;3.33;;;27.60;92.40;;;;;;5023345;28;20032;-73
2022/06/15 08:11:36;;;;;;;6.32;2.75;;;27.40;92.40;;;;;;5023069;28;20125;-73
2022/06/15 08:14:03;;;;;;;9.55;3.20;;;27.10;91.80;;;;;;5022812;28;20048;-73
2022/06/15 08:16:29;;;;;;;7.03;2.92;;;27.20;92.50;;;;;;5024705;28;20037;-72
2022/06/15 08:19:01;;;;;;;6.55;3.10;;;27.30;92.30;;;;;;5021348;28;20045;-73
2022/06/15 08:21:31;;;;;;;4.65;2.90;;;27.40;91.60;;;;;;5024240;28;20017;-73
2022/06/15 08:23:58;;;;;;;7.90;3.03;;;27.40;91.80;;;;;;5022524;28;20041;-73
2022/06/15 08:26:29;;;;;;;5.45;3.42;;;27.50;92.50;;;;;;5024390;28;20026;-73
2022/06/15 08:28:58;;;;;;;4.75;3.05;;;27.50;92.30;;;;;;5018104;28;20037;-73
2022/06/15 08:31:23;;;;;;;7.88;3.70;;;27.40;92.00;;;;;;5023690;28;20053;-72
2022/06/15 08:33:49;;;;;;;6.15;3.53;;;27.70;92.60;;;;;;5018650;28;20524;-73
2022/06/15 08:36:15;;;;;;;7.72;3.30;;;27.60;92.30;;;;;;5024580;28;20541;-73
2022/06/15 08:38:42;;;;;;;7.15;2.97;;;27.60;92.20;;;;;;5025171;28;20071;-73
2022/06/15 08:41:41;;;;;;;7.88;3.38;;;27.80;92.30;;;;;;5021726;28;20121;-73
2022/06/15 08:44:07;;;;;;;9.00;3.53;;;27.80;92.40;;;;;;5020374;28;20054;-73
2022/06/15 08:47:00;;;;;;;8.13;4.07;;;27.80;92.10;;;;;;5024073;28;20424;-72
2022/06/15 08:49:37;;;;;;;9.07;3.78;;;27.60;92.50;;;;;;5016653;28;20042;-73
2022/06/15 08:52:15;;;;;;;5.50;2.80;;;27.40;92.50;;;;;;5020249;28;20041;-73
2022/06/15 08:55:20;;;;;;;7.85;3.40;;;27.20;91.90;;;;;;5022091;28;20510;-73
2022/06/15 08:57:54;;;;;;;;;;;27.30;92.10;;;;;;5004786;28;20072;-73
2022/06/15 09:00:28;;;;;;;4.60;2.80;;;27.50;92.00;;;;;;5019364;28;19916;-73
2022/06/15 09:03:10;;;;;;;5.57;3.42;;;27.90;91.70;;;;;;5021239;28;20160;-73
2022/06/15 09:05:42;;;;;;;6.03;2.97;;;27.80;91.80;;;;;;5021327;28;20048;-73
2022/06/15 09:08:48;;;;;;;6.20;2.90;;;27.80;91.70;;;;;;5022195;28;20562;-73
2022/06/15 09:11:35;;;;;;;5.05;2.88;;;27.70;92.20;;;;;;5019673;28;20057;-74
2022/06/15 09:14:37;;;;;;;5.57;2.75;;;27.40;91.40;;;;;;5019860;28;20052;-73
2022/06/15 09:17:06;;;;;;;7.43;3.25;;;27.80;91.90;;;;;;5013685;28;20511;-73
2022/06/15 09:19:38;;;;;;;5.30;2.90;;;28.10;91.10;;;;;;5023058;28;20059;-73
2022/06/15 09:22:16;;;;;;;6.90;3.63;;;27.90;92.00;;;;;;5024145;28;20034;-74
2022/06/15 09:25:13;;;;;;;12.93;3.97;;;28.00;91.20;;;;;;5023413;28;20039;-74
2022/06/15 09:27:47;;;;;;;7.07;2.60;;;28.00;91.00;;;;;;5022399;28;20372;-74
2022/06/15 09:30:23;;;;;;;7.50;3.47;;;28.20;91.50;;;;;;5016590;28;20037;-74
2022/06/15 09:33:01;;;;;;;6.68;3.47;;;28.20;91.40;;;;;;5018693;28;20049;-74
2022/06/15 09:35:39;;;;;;;5.70;3.65;;;28.70;90.70;;;;;;5022875;28;20029;-74
2022/06/15 09:38:10;;;;;;;10.95;3.63;;;28.90;90.80;;;;;;5021787;28;20040;-74
2022/06/15 09:40:41;;;;;;;5.28;2.95;;;28.50;90.10;;;;;;5019287;28;20103;-74
2022/06/15 09:43:18;;;;;;;4.38;2.95;;;28.30;90.60;;;;;;5025118;28;20117;-74
2022/06/15 09:45:59;;;;;;;6.50;3.40;;;28.10;90.70;;;;;;5019453;28;20033;-74
2022/06/15 09:48:37;;;;;;;5.22;3.13;;;28.30;91.00;;;;;;5019170;28;20472;-74
2022/06/15 09:51:22;;;;;;;6.13;2.95;;;28.60;91.30;;;;;;5020016;28;20108;-73
2022/06/15 09:54:03;;;;;;;8.40;3.20;;;28.70;90.50;;;;;;5019411;28;20112;-74
2022/06/15 09:56:29;;;;;;;6.82;3.05;;;28.80;91.20;;;;;;5022844;28;20021;-74
2022/06/15 09:59:04;;;;;;;4.50;2.90;;;28.90;90.50;;;;;;5023608;28;20034;-74
2022/06/15 10:01:41;;;;;;;6.05;3.30;;;28.90;90.60;;;;;;5023010;28;20041;-74
2022/06/15 10:04:13;;;;;;;8.45;3.60;;;29.10;90.70;;;;;;5022236;28;20028;-74
2022/06/15 10:06:52;;;;;;;12.88;4.25;;;29.10;89.80;;;;;;5020897;28;20037;-74
2022/06/15 10:09:24;;;;;;;4.95;3.50;;;28.80;88.60;;;;;;5015567;28;20030;-74
2022/06/15 10:11:52;;;;;;;7.07;3.92;;;29.00;88.40;;;;;;5019715;28;20032;-74
2022/06/15 10:14:31;;;;;;;5.15;3.42;;;29.10;88.80;;;;;;5022333;28;20432;-74
2022/06/15 10:16:58;;;;;;;8.82;3.40;;;29.20;88.80;;;;;;5018344;28;20029;-74
2022/06/15 10:19:26;;;;;;;6.72;3.50;;;29.20;89.10;;;;;;5020322;28;20380;-73
2022/06/15 10:21:57;;;;;;;9.57;3.40;;;29.20;90.10;;;;;;5023809;28;20033;-74
2022/06/15 10:24:30;;;;;;;7.18;3.20;;;29.20;88.90;;;;;;5017323;28;20132;-73
2022/06/15 10:27:24;;;;;;;9.32;4.25;;;29.10;89.70;;;;;;5023663;28;20064;-74
2022/06/15 10:30:01;;;;;;;6.40;3.33;;;29.40;88.40;;;;;;5024387;28;20048;-74
2022/06/15 10:32:29;;;;;;;5.68;3.53;;;29.30;88.10;;;;;;5023640;28;20076;-74
2022/06/15 10:35:07;;;;;;;7.57;3.15;;;29.30;88.20;;;;;;5020077;28;20041;-74
2022/06/15 10:37:51;;;;;;;5.93;3.58;;;29.60;90.10;;;;;;5019202;28;20083;-74
2022/06/15 10:40:22;;;;;;;4.90;3.03;;;29.50;88.10;;;;;;5016665;28;20495;-74
2022/06/15 10:42:56;;;;;;;6.25;3.45;;;29.50;88.30;;;;;;5020147;28;20037;-74
2022/06/15 10:45:30;;;;;;;6.07;3.38;;;29.60;88.20;;;;;;5021690;28;20548;-73
2022/06/15 10:48:03;;;;;;;8.60;3.65;;;29.50;88.40;;;;;;5018756;28;20120;-74
2022/06/15 10:50:46;;;;;;;8.77;3.28;;;29.40;88.50;;;;;;5014437;28;20065;-74
2022/06/15 10:53:31;;;;;;;4.93;2.95;;;29.80;87.80;;;;;;5017949;28;20409;-74
2022/06/15 11:02:07;;;;;;;5.43;3.45;;;29.40;87.70;;;;;;5014881;28;20103;-74
2022/06/15 11:04:49;;;;;;;7.47;3.10;;;29.70;87.50;;;;;;5020308;28;20067;-74
2022/06/15 11:07:38;;;;;;;6.67;3.13;;;30.00;88.50;;;;;;5023619;28;20100;-74
2022/06/15 11:10:13;;;;;;;7.65;3.67;;;29.70;86.80;;;;;;5016925;28;20049;-74
2022/06/15 11:12:47;;;;;;;4.45;3.35;;;29.90;87.80;;;;;;5023868;28;20034;-74
2022/06/15 11:15:15;;;;;;;7.47;3.15;;;30.00;86.60;;;;;;5011205;28;20619;-74
2022/06/15 11:18:03;;;;;;;10.15;3.58;;;30.20;88.10;;;;;;5022394;28;20436;-75
2022/06/15 11:21:02;;;;;;;6.93;3.20;;;30.40;88.30;;;;;;5020053;28;20036;-73
2022/06/15 11:23:36;;;;;;;7.35;4.05;;;30.30;86.60;;;;;;5016000;28;20036;-73
2022/06/15 11:28:59;;;;;;;6.60;3.70;;;30.10;86.80;;;;;;5023845;28;20412;-71
2022/06/15 11:31:28;;;;;;;4.97;3.25;;;30.10;88.40;;;;;;5014827;28;20045;-72
2022/06/15 11:34:11;;;;;;;8.02;3.47;;;30.40;87.80;;;;;;5023130;28;20041;-73
2022/06/15 11:36:51;;;;;;;4.82;3.10;;;30.80;87.30;;;;;;5026213;28;20573;-73
2022/06/15 11:39:30;;;;;;;7.28;3.00;;;30.50;86.70;;;;;;5025250;28;20030;-74
2022/06/15 11:41:57;;;;;;;6.18;3.25;;;30.30;86.40;;;;;;5019489;28;20103;-75
2022/06/15 11:44:31;;;;;;;6.90;3.10;;;30.50;88.20;;;;;;5023620;28;20435;-75
2022/06/15 11:47:06;;;;;;;6.88;3.70;;;30.70;86.80;;;;;;5019943;28;20039;-75
2022/06/15 11:49:43;;;;;;;6.60;3.78;;;30.80;86.40;;;;;;5018525;28;20041;-75
2022/06/15 11:52:15;;;;;;;6.47;3.28;;;30.50;85.40;;;;;;5022982;28;20042;-75
2022/06/15 11:55:16;;;;;;;7.38;3.30;;;30.30;86.70;;;;;;5020077;28;20033;-75
2022/06/15 11:58:10;;;;;;;7.20;2.78;;;30.50;86.10;;;;;;5021487;28;20037;-75
2022/06/15 12:00:53;;;;;;;7.88;3.40;;;30.90;86.70;;;;;;5021627;28;20033;-75
2022/06/15 12:03:39;;;;;;;7.15;3.92;;;30.90;85.80;;;;;;5017585;28;20025;-76
2022/06/15 12:06:18;;;;;;;6.70;3.38;;;30.80;85.90;;;;;;5021108;28;20463;-76
2022/06/15 12:09:10;;;;;;;6.70;3.92;;;30.80;85.80;;;;;;5015204;28;20556;-75
2022/06/15 12:14:38;;;;;;;5.53;3.60;;;30.80;85.00;;;;;;5025153;28;20053;-75
2022/06/15 12:17:24;;;;;;;7.03;3.25;;;31.20;85.50;;;;;;5023823;28;20086;-75
2022/06/15 12:20:18;;;;;;;6.40;3.50;;;31.40;86.10;;;;;;5015412;28;20037;-75
2022/06/15 12:23:21;;;;;;;6.63;3.30;;;31.50;86.20;;;;;;5022577;28;20068;-75
2022/06/15 12:25:46;;;;;;;6.22;3.08;;;31.30;85.20;;;;;;5023407;28;20866;-72
2022/06/15 12:28:24;;;;;;;5.07;3.33;;;31.10;87.10;;;;;;5024330;28;20025;-72
2022/06/15 12:31:22;;;;;;;3.92;2.97;;;31.40;86.10;;;;;;5023943;28;20052;-72
2022/06/15 12:33:53;;;;;;;5.30;3.25;;;31.10;85.00;;;;;;5019803;28;20110;-73
2022/06/15 12:37:01;;;;;;;3.60;2.83;;;31.10;85.70;;;;;;5019223;28;20710;-73
2022/06/15 12:39:40;;;;;;;6.15;3.05;;;31.10;84.70;;;;;;5002445;28;20095;-73
2022/06/15 12:42:14;;;;;;;4.85;3.20;;;31.20;85.60;;;;;;5023571;28;20037;-73
2022/06/15 12:44:39;;;;;;;;;;;31.50;84.80;;;;;;5020343;28;20033;-73
2022/06/15 12:47:16;;;;;;;5.40;2.63;;;31.70;85.10;;;;;;5025074;28;19913;-74
2022/06/15 12:49:45;;;;;;;4.18;2.53;;;31.50;86.40;;;;;;5014991;28;20029;-74
2022/06/15 12:52:34;;;;;;;7.10;3.30;;;31.10;84.40;;;;;;5019461;28;20045;-74
2022/06/15 12:55:09;;;;;;;5.22;3.30;;;31.10;83.90;;;;;;5015435;28;20128;-74
2022/06/15 12:57:57;;;;;;;8.45;3.38;;;31.20;84.70;;;;;;5022737;28;21101;-74
2022/06/15 13:00:31;;;;;;;5.68;3.08;;;31.70;84.90;;;;;;5024225;28;20029;-74
2022/06/15 13:03:12;;;;;;;4.85;2.92;;;31.60;83.10;;;;;;5021368;28;20025;-74
2022/06/15 13:05:38;;;;;;;6.63;2.88;;;32.00;84.00;;;;;;5020394;28;20037;-74
2022/06/15 13:08:16;;;;;;;4.60;3.00;;;32.10;83.70;;;;;;5021692;28;20029;-73
2022/06/15 13:10:54;;;;;;;4.85;3.10;;;31.90;83.20;;;;;;5022028;28;20025;-73
2022/06/15 13:13:26;;;;;;;5.03;3.03;;;31.60;83.30;;;;;;5013101;28;20516;-74
2022/06/15 13:15:59;;;;;;;6.60;3.30;;;31.60;83.50;;;;;;5019686;28;20472;-74
2022/06/15 13:18:50;;;;;;;5.55;2.42;;;31.60;84.10;;;;;;5024824;28;20398;-74
2022/06/15 13:21:27;;;;;;;7.13;3.15;;;31.60;83.30;;;;;;5016549;28;20041;-74
2022/06/15 13:24:06;;;;;;;7.43;3.40;;;31.50;84.30;;;;;;5021332;28;20162;-74
2022/06/15 13:26:31;;;;;;;7.03;3.10;;;30.90;84.10;;;;;;5017993;28;20034;-73
2022/06/15 13:29:01;;;;;;;7.38;3.17;;;30.40;84.30;;;;;;5011509;28;20316;-75
2022/06/15 13:31:57;;;;;;;7.40;3.22;;;30.20;85.40;;;;;;5011367;28;20033;-74
2022/06/15 13:34:35;;;;;;;4.82;2.75;;;30.10;84.80;;;;;;5010113;28;20034;-73